Time;durP1;ratioP1;P1;durP2;ratioP2;P2;SDS_P1;SDS_P2;PMS_P1;PMS_P2;Temp;Humidity;BMP_temperature;BMP_pressure;BME280_temperature;BME280_humidity;BME280_pressure;Samples;Min_cycle;Max_cycle;Signal;HPM_P1;HPM_P2
2023/04/12 00:00:44;;;;;;;2.20;2.00;;;7.30;99.90;;;;;;4929047;29;20717;-71
2023/04/12 00:03:18;;;;;;;5.97;1.63;;;7.30;99.90;;;;;;4929458;29;20344;-71
2023/04/12 00:05:47;;;;;;;2.10;1.27;;;7.30;99.90;;;;;;4929441;29;20749;-71
2023/04/12 00:08:14;;;;;;;2.47;1.47;;;7.30;99.90;;;;;;4928561;29;20232;-71
2023/04/12 00:10:42;;;;;;;2.10;1.50;;;7.30;99.90;;;;;;4929604;29;20295;-71
2023/04/12 00:13:08;;;;;;;4.20;1.60;;;7.30;99.90;;;;;;4929302;29;20215;-71
2023/04/12 00:15:35;;;;;;;2.63;1.50;;;7.30;99.90;;;;;;4929154;29;20303;-71
2023/04/12 00:18:02;;;;;;;2.63;1.60;;;7.20;99.90;;;;;;4929205;29;20204;-71
2023/04/12 00:20:31;;;;;;;1.70;1.60;;;7.10;99.90;;;;;;4929565;29;20228;-71
2023/04/12 00:22:57;;;;;;;2.17;1.57;;;6.90;99.90;;;;;;4929175;29;20299;-71
2023/04/12 00:25:25;;;;;;;2.70;1.40;;;6.90;99.90;;;;;;4928848;29;20306;-73
2023/04/12 00:27:52;;;;;;;3.37;1.53;;;6.90;99.90;;;;;;4928558;29;20689;-73
2023/04/12 00:30:19;;;;;;;2.83;1.40;;;6.90;99.90;;;;;;4928647;29;20322;-71
2023/04/12 00:32:46;;;;;;;1.60;1.50;;;6.80;99.90;;;;;;4928564;29;20244;-72
2023/04/12 00:35:13;;;;;;;3.07;1.60;;;6.90;99.90;;;;;;4928592;29;20363;-72
2023/04/12 00:37:41;;;;;;;1.97;1.53;;;6.90;99.90;;;;;;4929223;29;20327;-72
2023/04/12 00:40:09;;;;;;;3.17;1.50;;;6.90;99.90;;;;;;4928771;29;20243;-72
2023/04/12 00:42:37;;;;;;;1.67;1.57;;;6.90;99.90;;;;;;4928850;29;20303;-72
2023/04/12 00:45:05;;;;;;;1.90;1.47;;;6.90;99.90;;;;;;4928269;29;20299;-72
2023/04/12 00:47:34;;;;;;;2.37;1.50;;;6.90;99.90;;;;;;4928789;29;20222;-72
2023/04/12 00:50:02;;;;;;;1.40;1.30;;;6.90;99.90;;;;;;4928558;29;20208;-72
2023/04/12 00:52:33;;;;;;;3.07;1.57;;;6.90;99.90;;;;;;4929118;29;20746;-72
2023/04/12 00:55:02;;;;;;;1.20;1.17;;;6.90;99.90;;;;;;4931481;28;20212;-72
2023/04/12 00:57:32;;;;;;;2.33;1.30;;;7.00;99.90;;;;;;4928262;29;20640;-72
2023/04/12 00:59:59;;;;;;;1.53;1.40;;;7.00;99.90;;;;;;4928267;29;20231;-72
2023/04/12 01:02:26;;;;;;;1.73;1.40;;;7.10;99.90;;;;;;4928736;29;20599;-72
2023/04/12 01:04:53;;;;;;;2.03;1.60;;;7.10;99.90;;;;;;4927882;29;20674;-72
2023/04/12 01:07:43;;;;;;;1.27;1.17;;;7.10;99.90;;;;;;4920623;29;20240;-72
2023/04/12 01:10:26;;;;;;;1.30;1.30;;;7.10;99.90;;;;;;4912052;29;20212;-72
2023/04/12 01:13:05;;;;;;;5.03;1.40;;;7.10;99.90;;;;;;4928228;29;20311;-72
2023/04/12 01:15:36;;;;;;;1.10;1.10;;;7.10;99.90;;;;;;4927786;29;20224;-71
2023/04/12 01:18:08;;;;;;;2.93;1.30;;;7.00;99.90;;;;;;4928474;29;20303;-73
2023/04/12 01:20:43;;;;;;;1.80;1.30;;;7.00;99.90;;;;;;4931688;29;20224;-72
2023/04/12 01:23:45;;;;;;;1.87;1.70;;;6.90;99.90;;;;;;4932264;29;20204;-73
2023/04/12 01:26:31;;;;;;;1.27;1.17;;;6.80;99.90;;;;;;4916944;29;20809;-72
2023/04/12 01:29:03;;;;;;;1.73;1.10;;;6.80;99.90;;;;;;4931536;29;21125;-72
2023/04/12 01:31:32;;;;;;;1.70;1.47;;;6.70;99.90;;;;;;4915743;29;20216;-72
2023/04/12 01:34:01;;;;;;;1.20;1.10;;;6.70;99.90;;;;;;4932077;29;20331;-72
2023/04/12 01:36:29;;;;;;;2.03;1.30;;;6.70;99.90;;;;;;4931863;29;20636;-73
2023/04/12 01:38:58;;;;;;;13.60;2.40;;;6.60;99.90;;;;;;4931628;29;20214;-72
2023/04/12 01:41:25;;;;;;;2.30;1.43;;;6.50;99.90;;;;;;4931838;29;20275;-72
2023/04/12 01:43:52;;;;;;;1.20;1.10;;;6.50;99.90;;;;;;4931605;29;20220;-72
2023/04/12 01:46:22;;;;;;;1.40;1.30;;;6.40;99.90;;;;;;4931739;29;20208;-72
2023/04/12 01:48:52;;;;;;;1.37;1.27;;;6.50;99.90;;;;;;4932033;29;20587;-72
2023/04/12 01:51:26;;;;;;;3.53;1.50;;;6.50;99.90;;;;;;4931654;29;20303;-72
2023/04/12 01:53:59;;;;;;;1.10;1.10;;;6.60;99.90;;;;;;4931473;29;20739;-72
2023/04/12 01:56:33;;;;;;;4.07;1.57;;;6.60;99.90;;;;;;4931394;29;20200;-72
2023/04/12 01:59:02;;;;;;;3.43;1.40;;;6.80;99.90;;;;;;4931484;29;20212;-72
2023/04/12 02:01:31;;;;;;;2.43;1.47;;;6.70;99.90;;;;;;4931393;29;20673;-72
2023/04/12 02:03:59;;;;;;;1.63;1.20;;;6.70;99.90;;;;;;4931701;29;20216;-72
2023/04/12 02:06:27;;;;;;;1.97;1.30;;;6.60;99.90;;;;;;4931241;29;20268;-71
2023/04/12 02:08:58;;;;;;;2.50;1.30;;;6.70;99.90;;;;;;4931568;29;20212;-71
2023/04/12 02:11:25;;;;;;;2.13;1.50;;;6.70;99.90;;;;;;4931460;29;20239;-71
2023/04/12 02:13:52;;;;;;;3.27;1.30;;;6.70;99.90;;;;;;4931117;29;20314;-72
2023/04/12 02:16:21;;;;;;;1.50;1.40;;;6.70;99.90;;;;;;4930856;29;20240;-73
2023/04/12 02:18:50;;;;;;;2.33;1.50;;;6.70;99.90;;;;;;4931167;29;20678;-73
2023/04/12 02:21:17;;;;;;;1.43;1.30;;;6.70;99.90;;;;;;4931297;29;20597;-72
2023/04/12 02:23:44;;;;;;;3.43;1.80;;;6.70;99.90;;;;;;4931175;29;20200;-73
2023/04/12 02:26:11;;;;;;;2.67;1.50;;;6.80;99.90;;;;;;4930655;29;20215;-73
2023/04/12 02:28:38;;;;;;;1.47;1.37;;;6.70;99.90;;;;;;4930992;29;20243;-75
2023/04/12 02:31:07;;;;;;;1.77;1.67;;;6.70;99.90;;;;;;4928631;29;20295;-73
2023/04/12 02:33:34;;;;;;;1.70;1.60;;;6.60;99.90;;;;;;4929551;29;20212;-73
2023/04/12 02:36:03;;;;;;;1.20;1.10;;;6.50;99.90;;;;;;4928667;29;20588;-73
2023/04/12 02:38:30;;;;;;;3.60;1.30;;;6.60;99.90;;;;;;4923914;29;20204;-73
2023/04/12 02:40:57;;;;;;;2.63;1.60;;;6.60;99.90;;;;;;4928806;29;20232;-74
2023/04/12 02:43:24;;;;;;;2.40;1.33;;;6.50;99.90;;;;;;4928455;29;20675;-73
2023/04/12 02:45:52;;;;;;;1.60;1.50;;;6.50;99.90;;;;;;4928508;29;20257;-74
2023/04/12 02:48:18;;;;;;;1.50;1.40;;;6.50;99.90;;;;;;4929139;29;20208;-74
2023/04/12 02:50:46;;;;;;;5.07;1.40;;;6.50;99.90;;;;;;4929221;29;20208;-73
2023/04/12 02:53:15;;;;;;;1.97;1.70;;;6.40;99.90;;;;;;4928844;29;20750;-74
2023/04/12 02:55:43;;;;;;;3.23;1.50;;;6.40;99.90;;;;;;4928678;29;20208;-73
2023/04/12 02:58:11;;;;;;;1.90;1.77;;;6.30;99.90;;;;;;4928633;29;20223;-73
2023/04/12 03:00:38;;;;;;;1.67;1.30;;;6.30;99.90;;;;;;4928455;29;20212;-73
2023/04/12 03:03:07;;;;;;;3.17;1.67;;;6.30;99.90;;;;;;4928512;29;20240;-72
2023/04/12 03:05:35;;;;;;;1.87;1.40;;;6.30;99.90;;;;;;4929458;29;20212;-73
2023/04/12 03:08:02;;;;;;;3.03;1.47;;;6.30;99.90;;;;;;4930041;29;20211;-74
2023/04/12 03:10:30;;;;;;;2.17;1.50;;;6.30;99.90;;;;;;4929216;29;20750;-74
2023/04/12 03:12:57;;;;;;;3.37;1.50;;;6.30;99.90;;;;;;4929809;29;20295;-74
2023/04/12 03:15:24;;;;;;;3.33;1.67;;;6.30;99.90;;;;;;4929866;29;20295;-74
2023/04/12 03:17:51;;;;;;;3.27;1.83;;;6.20;99.90;;;;;;4892389;29;20309;-73
2023/04/12 03:20:19;;;;;;;3.53;1.90;;;6.20;99.90;;;;;;4892323;29;20218;-74
2023/04/12 03:22:45;;;;;;;2.23;1.47;;;6.20;99.90;;;;;;4899060;29;20274;-74
2023/04/12 03:25:12;;;;;;;3.33;1.90;;;6.20;99.90;;;;;;4911065;29;20568;-74
2023/04/12 03:27:41;;;;;;;2.07;1.60;;;6.10;99.90;;;;;;4911269;29;20307;-74
2023/04/12 03:30:10;;;;;;;1.73;1.63;;;6.10;99.90;;;;;;4894922;29;20249;-73
2023/04/12 03:32:37;;;;;;;2.57;1.70;;;6.10;99.90;;;;;;4891876;29;20249;-74
2023/04/12 03:35:06;;;;;;;3.67;1.73;;;6.10;99.90;;;;;;4892067;29;20296;-73
2023/04/12 03:37:33;;;;;;;2.10;1.67;;;6.10;99.90;;;;;;4892337;29;20214;-74
2023/04/12 03:40:01;;;;;;;1.93;1.73;;;6.00;99.90;;;;;;4891830;29;21142;-74
2023/04/12 03:42:28;;;;;;;1.83;1.60;;;5.90;99.90;;;;;;4892037;29;20242;-74
2023/04/12 03:44:56;;;;;;;3.90;1.70;;;5.90;99.90;;;;;;4891694;29;20217;-74
2023/04/12 03:47:23;;;;;;;1.80;1.70;;;5.80;99.90;;;;;;4892412;29;20225;-74
2023/04/12 03:49:53;;;;;;;2.93;2.07;;;5.80;99.90;;;;;;4892080;29;20300;-73
2023/04/12 03:52:20;;;;;;;1.70;1.60;;;5.80;99.90;;;;;;4892469;29;20281;-74
2023/04/12 03:54:47;;;;;;;1.80;1.70;;;5.80;99.90;;;;;;4891910;29;20305;-74
2023/04/12 03:57:15;;;;;;;3.33;1.80;;;5.90;99.90;;;;;;4891580;29;20337;-74
2023/04/12 03:59:41;;;;;;;2.33;1.73;;;5.80;99.90;;;;;;4891887;29;20217;-74
2023/04/12 04:02:10;;;;;;;2.57;1.70;;;5.80;99.90;;;;;;4891448;29;20237;-74
2023/04/12 04:04:37;;;;;;;3.57;2.00;;;5.80;99.90;;;;;;4891608;29;20304;-74
2023/04/12 04:07:05;;;;;;;2.23;2.00;;;5.90;99.90;;;;;;4886583;29;21071;-74
2023/04/12 04:09:35;;;;;;;2.40;1.80;;;5.90;99.90;;;;;;4872857;29;20217;-74
2023/04/12 04:12:02;;;;;;;1.80;1.70;;;5.90;99.90;;;;;;4873280;29;20304;-74
2023/04/12 04:14:28;;;;;;;3.93;2.00;;;5.80;99.90;;;;;;4872618;29;20218;-73
2023/04/12 04:16:55;;;;;;;2.00;1.87;;;5.90;99.90;;;;;;4896034;29;20268;-74
2023/04/12 04:19:24;;;;;;;2.77;1.80;;;5.90;99.90;;;;;;4923083;29;20295;-74
2023/04/12 04:21:51;;;;;;;1.93;1.83;;;5.90;99.90;;;;;;4929218;29;20244;-74
2023/04/12 04:24:21;;;;;;;2.57;2.17;;;5.90;99.90;;;;;;4928926;29;20219;-74
2023/04/12 04:26:49;;;;;;;2.13;1.90;;;5.90;99.90;;;;;;4929430;28;20208;-74
2023/04/12 04:29:17;;;;;;;2.83;1.87;;;5.90;99.90;;;;;;4928637;29;20240;-74
2023/04/12 04:31:44;;;;;;;4.13;2.00;;;5.90;99.90;;;;;;4928904;29;20207;-74
2023/04/12 04:34:12;;;;;;;3.73;2.40;;;5.90;99.90;;;;;;4929325;29;20211;-74
2023/04/12 04:36:41;;;;;;;1.90;1.80;;;5.80;99.90;;;;;;4929110;29;20267;-74
2023/04/12 04:39:08;;;;;;;2.63;2.43;;;5.80;99.90;;;;;;4929024;29;20296;-74
2023/04/12 04:41:38;;;;;;;4.57;2.40;;;5.90;99.90;;;;;;4928828;29;20228;-74
2023/04/12 04:44:08;;;;;;;3.07;2.77;;;5.90;99.90;;;;;;4928781;29;20208;-74
2023/04/12 04:46:36;;;;;;;4.50;2.73;;;5.90;99.90;;;;;;4928756;29;20283;-74
2023/04/12 04:49:04;;;;;;;3.30;3.00;;;5.90;99.90;;;;;;4928709;29;20216;-74
2023/04/12 04:51:31;;;;;;;4.77;2.90;;;5.90;99.90;;;;;;4928747;29;20319;-74
2023/04/12 04:54:00;;;;;;;2.80;2.60;;;5.90;99.90;;;;;;4928220;29;20208;-74
2023/04/12 04:56:27;;;;;;;5.67;3.37;;;5.90;99.90;;;;;;4928341;28;20384;-74
2023/04/12 04:58:54;;;;;;;2.70;2.50;;;5.90;99.90;;;;;;4928466;29;20287;-74
2023/04/12 05:01:24;;;;;;;2.87;2.40;;;5.90;99.90;;;;;;4928335;29;20211;-74
2023/04/12 05:03:51;;;;;;;2.50;2.30;;;5.80;99.90;;;;;;4927941;29;20327;-74
2023/04/12 05:06:18;;;;;;;2.47;2.27;;;5.80;99.90;;;;;;4928216;29;20306;-74
2023/04/12 05:08:45;;;;;;;2.50;2.17;;;5.80;99.90;;;;;;4928195;29;20218;-74
2023/04/12 05:11:13;;;;;;;4.60;2.70;;;5.80;99.90;;;;;;4928299;29;20339;-74
2023/04/12 05:13:40;;;;;;;3.63;2.57;;;5.90;99.90;;;;;;4928381;29;20212;-73
2023/04/12 05:16:08;;;;;;;2.63;2.43;;;5.90;99.90;;;;;;4928149;29;20242;-73
2023/04/12 05:18:35;;;;;;;3.37;2.60;;;5.90;99.90;;;;;;4928247;29;20294;-73
2023/04/12 05:21:02;;;;;;;2.57;2.37;;;6.00;99.90;;;;;;4928372;29;20243;-74
2023/04/12 05:23:30;;;;;;;2.90;2.70;;;6.10;99.90;;;;;;4928289;29;20251;-74
2023/04/12 05:25:57;;;;;;;3.57;2.63;;;5.90;99.90;;;;;;4928029;29;20208;-73
2023/04/12 05:28:25;;;;;;;3.00;2.60;;;6.00;99.90;;;;;;4928140;29;20306;-74
2023/04/12 05:30:52;;;;;;;2.60;2.40;;;6.00;99.90;;;;;;4927837;29;20203;-74
2023/04/12 05:33:19;;;;;;;3.70;2.50;;;6.00;99.90;;;;;;4928274;29;20303;-74
2023/04/12 05:35:45;;;;;;;4.33;2.50;;;6.10;99.90;;;;;;4911488;29;20271;-74
2023/04/12 05:38:12;;;;;;;3.80;2.37;;;6.10;99.90;;;;;;4908852;29;20275;-74
2023/04/12 05:40:40;;;;;;;4.10;2.73;;;6.10;99.90;;;;;;4908973;29;20260;-73
2023/04/12 05:43:11;;;;;;;2.63;2.37;;;6.10;99.90;;;;;;4908750;29;20782;-74
2023/04/12 05:45:39;;;;;;;2.53;2.33;;;6.10;99.90;;;;;;4920617;29;20510;-74
2023/04/12 05:48:06;;;;;;;4.03;2.43;;;6.10;99.90;;;;;;4927679;29;20212;-73
2023/04/12 05:50:33;;;;;;;3.80;2.50;;;6.20;99.90;;;;;;4928018;29;20204;-74
2023/04/12 05:53:01;;;;;;;2.67;2.47;;;6.20;99.90;;;;;;4927984;29;20291;-74
2023/04/12 05:55:28;;;;;;;2.67;2.47;;;6.20;99.90;;;;;;4927969;29;20267;-74
2023/04/12 05:57:55;;;;;;;3.20;2.40;;;6.30;99.90;;;;;;4927693;29;20778;-74
2023/04/12 06:00:22;;;;;;;2.63;2.20;;;6.30;99.90;;;;;;4927827;29;20591;-74
2023/04/12 06:02:51;;;;;;;3.43;2.30;;;6.30;99.90;;;;;;4928072;29;20720;-73
2023/04/12 06:05:18;;;;;;;2.70;2.50;;;6.40;99.90;;;;;;4928150;29;20216;-74
2023/04/12 06:07:45;;;;;;;2.53;2.33;;;6.40;99.90;;;;;;4931207;29;20667;-73
2023/04/12 06:10:15;;;;;;;2.93;2.40;;;6.40;99.90;;;;;;4931341;29;20279;-73
2023/04/12 06:12:42;;;;;;;2.60;2.40;;;6.40;99.90;;;;;;4930337;29;20224;-73
2023/04/12 06:15:09;;;;;;;2.43;2.23;;;6.50;99.90;;;;;;4931144;29;20208;-73
2023/04/12 06:17:37;;;;;;;3.60;3.00;;;6.50;99.90;;;;;;4931193;29;20240;-74
2023/04/12 06:20:08;;;;;;;3.00;2.37;;;6.50;99.90;;;;;;4931465;29;20682;-74
2023/04/12 06:22:35;;;;;;;3.90;2.80;;;6.50;99.90;;;;;;4931626;29;20232;-74
2023/04/12 06:25:02;;;;;;;2.97;2.60;;;6.60;99.90;;;;;;4931277;29;20235;-73
2023/04/12 06:27:29;;;;;;;4.00;2.67;;;6.60;99.90;;;;;;4931172;29;20649;-73
2023/04/12 06:29:56;;;;;;;3.23;2.20;;;6.60;99.90;;;;;;4930502;29;20291;-74
2023/04/12 06:32:23;;;;;;;3.50;2.40;;;6.70;99.90;;;;;;4930542;29;20770;-74
2023/04/12 06:34:50;;;;;;;4.43;2.50;;;6.70;99.90;;;;;;4930867;29;20566;-74
2023/04/12 06:37:18;;;;;;;3.13;2.40;;;6.70;99.90;;;;;;4930322;29;20888;-74
2023/04/12 06:39:45;;;;;;;2.23;2.03;;;6.80;99.90;;;;;;4930735;29;20205;-74
2023/04/12 06:42:13;;;;;;;4.10;2.50;;;6.80;99.90;;;;;;4930192;29;20247;-74
2023/04/12 06:44:40;;;;;;;2.57;2.37;;;6.90;99.90;;;;;;4930707;29;20243;-74
2023/04/12 06:47:07;;;;;;;4.53;2.10;;;6.90;99.90;;;;;;4930435;29;20755;-74
2023/04/12 06:49:33;;;;;;;2.77;1.90;;;7.00;99.90;;;;;;4930417;29;21020;-74
2023/04/12 06:52:00;;;;;;;2.83;2.03;;;7.00;99.90;;;;;;4930624;29;20216;-73
2023/04/12 06:54:29;;;;;;;3.47;1.90;;;7.10;99.90;;;;;;4930822;29;20319;-73
2023/04/12 06:56:56;;;;;;;3.90;1.90;;;7.10;99.90;;;;;;4930549;29;20316;-74
2023/04/12 06:59:23;;;;;;;3.23;2.00;;;7.20;99.90;;;;;;4930710;29;20247;-74
2023/04/12 07:01:50;;;;;;;2.83;1.47;;;7.20;99.90;;;;;;4930727;29;20216;-74
2023/04/12 07:04:17;;;;;;;1.63;1.40;;;7.30;99.90;;;;;;4930622;29;20332;-74
2023/04/12 07:06:44;;;;;;;2.90;1.60;;;7.40;99.90;;;;;;4929945;29;20214;-74
2023/04/12 07:09:11;;;;;;;2.13;1.67;;;7.40;99.90;;;;;;4949351;28;20227;-73
2023/04/12 07:11:39;;;;;;;1.47;1.33;;;7.50;99.90;;;;;;4949237;28;20689;-74
2023/04/12 07:14:06;;;;;;;2.03;1.40;;;7.50;99.90;;;;;;4948920;28;20326;-74
2023/04/12 07:16:33;;;;;;;2.10;1.67;;;7.60;99.90;;;;;;4929452;28;20323;-74
2023/04/12 07:19:00;;;;;;;1.50;1.10;;;7.60;99.90;;;;;;4930065;29;20218;-74
2023/04/12 07:21:27;;;;;;;2.77;1.60;;;7.70;99.90;;;;;;4929853;29;20308;-74
2023/04/12 07:23:54;;;;;;;2.13;1.33;;;7.70;99.90;;;;;;4929727;29;20334;-74
2023/04/12 07:26:21;;;;;;;2.40;1.53;;;7.80;99.90;;;;;;4929514;29;20300;-74
2023/04/12 07:28:50;;;;;;;1.20;1.03;;;7.80;99.90;;;;;;4924476;29;20971;-73
2023/04/12 07:31:17;;;;;;;2.67;1.40;;;7.90;99.90;;;;;;4910478;29;20219;-74
2023/04/12 07:33:44;;;;;;;1.90;1.07;;;8.00;99.90;;;;;;4910972;29;20224;-74
2023/04/12 07:36:11;;;;;;;3.53;1.30;;;8.00;99.90;;;;;;4910652;29;20627;-73
2023/04/12 07:38:38;;;;;;;2.40;1.50;;;8.10;99.90;;;;;;4910722;29;20272;-74
2023/04/12 07:41:05;;;;;;;4.40;1.20;;;8.20;99.90;;;;;;4910543;29;20585;-74
2023/04/12 07:43:32;;;;;;;2.10;1.20;;;8.20;99.90;;;;;;4910477;29;20343;-74
2023/04/12 07:46:03;;;;;;;4.37;1.50;;;8.30;99.90;;;;;;4915975;29;20302;-74
2023/04/12 07:48:30;;;;;;;3.47;1.67;;;8.30;99.90;;;;;;4929705;29;20211;-74
2023/04/12 07:50:57;;;;;;;3.57;1.37;;;8.40;99.90;;;;;;4929146;29;20763;-74
2023/04/12 07:53:26;;;;;;;2.83;1.40;;;8.50;99.90;;;;;;4929374;29;20298;-74
2023/04/12 07:55:54;;;;;;;2.40;1.70;;;8.60;99.90;;;;;;4929161;29;20701;-74
2023/04/12 07:58:22;;;;;;;3.73;1.97;;;8.60;99.90;;;;;;4929119;29;20212;-74
2023/04/12 08:00:49;;;;;;;2.23;1.33;;;8.60;99.90;;;;;;4929244;29;20571;-74
2023/04/12 08:03:18;;;;;;;2.30;1.30;;;8.70;99.90;;;;;;4926289;29;20244;-74
2023/04/12 08:05:51;;;;;;;4.40;2.53;;;8.90;99.90;;;;;;4909705;29;20205;-74
2023/04/12 08:08:19;;;;;;;4.23;1.77;;;8.90;99.90;;;;;;4909904;29;20200;-74
2023/04/12 08:10:46;;;;;;;2.07;1.70;;;8.90;99.90;;;;;;4912903;29;20232;-74
2023/04/12 08:13:13;;;;;;;2.60;1.30;;;9.00;99.90;;;;;;4928688;29;20236;-74
2023/04/12 08:15:40;;;;;;;3.10;1.30;;;9.00;99.90;;;;;;4928687;29;20719;-74
2023/04/12 08:18:06;;;;;;;2.47;1.33;;;9.10;99.90;;;;;;4928881;29;20204;-74
2023/04/12 08:20:35;;;;;;;3.70;1.47;;;9.20;99.90;;;;;;4928590;29;20294;-74
2023/04/12 08:23:02;;;;;;;3.70;1.47;;;9.20;99.90;;;;;;4928391;29;20256;-74
2023/04/12 08:25:29;;;;;;;4.60;1.70;;;9.20;99.90;;;;;;4928664;29;20220;-74
2023/04/12 08:27:56;;;;;;;2.67;1.53;;;9.30;99.90;;;;;;4928584;29;20220;-74
2023/04/12 08:30:25;;;;;;;3.17;1.50;;;9.30;99.90;;;;;;4928401;29;20311;-74
2023/04/12 08:32:52;;;;;;;3.13;1.57;;;9.40;99.90;;;;;;4928938;29;20258;-75
2023/04/12 08:35:19;;;;;;;2.00;1.30;;;9.40;99.90;;;;;;4928882;29;20302;-74
2023/04/12 08:37:48;;;;;;;3.37;1.47;;;9.50;99.90;;;;;;4929164;29;20323;-74
2023/04/12 08:40:16;;;;;;;1.90;1.20;;;9.60;99.90;;;;;;4928174;29;20208;-74
2023/04/12 08:42:43;;;;;;;3.60;1.50;;;9.60;99.90;;;;;;4928882;29;20204;-74
2023/04/12 08:45:12;;;;;;;2.87;1.27;;;9.70;99.90;;;;;;4928406;29;20216;-74
2023/04/12 08:47:40;;;;;;;3.30;1.50;;;9.70;99.90;;;;;;4928459;29;20218;-74
2023/04/12 08:50:09;;;;;;;2.70;1.03;;;9.80;99.90;;;;;;4928366;29;20219;-74
2023/04/12 08:52:37;;;;;;;2.60;1.43;;;9.90;99.90;;;;;;4928485;29;20295;-74
2023/04/12 08:55:06;;;;;;;4.37;1.57;;;10.00;99.90;;;;;;4928044;29;20212;-74
2023/04/12 08:57:35;;;;;;;2.87;1.20;;;10.00;99.90;;;;;;4928680;29;20597;-74
2023/04/12 09:00:03;;;;;;;1.77;1.30;;;10.10;99.90;;;;;;4933541;29;20302;-74
2023/04/12 09:02:31;;;;;;;3.00;1.30;;;10.20;99.90;;;;;;4947723;28;20215;-75
2023/04/12 09:04:58;;;;;;;4.47;1.60;;;10.20;99.90;;;;;;4947560;28;20561;-75
2023/04/12 09:07:26;;;;;;;1.47;1.20;;;10.20;99.90;;;;;;4939129;28;20733;-74
2023/04/12 09:09:54;;;;;;;2.87;1.33;;;10.30;99.90;;;;;;4928189;29;20232;-74
2023/04/12 09:12:23;;;;;;;2.53;1.10;;;10.50;99.90;;;;;;4928352;29;20298;-74
2023/04/12 09:15:06;;;;;;;1.97;1.17;;;10.60;99.90;;;;;;4928186;29;20260;-75
2023/04/12 09:17:35;;;;;;;2.53;1.23;;;10.60;99.90;;;;;;4928255;29;20254;-74
2023/04/12 09:20:03;;;;;;;2.50;1.37;;;10.60;99.90;;;;;;4928488;29;20208;-74
2023/04/12 09:22:34;;;;;;;1.70;1.20;;;10.70;99.90;;;;;;4928592;29;20789;-75
2023/04/12 09:25:01;;;;;;;1.97;1.00;;;10.80;99.90;;;;;;4928238;29;20247;-72
2023/04/12 09:27:29;;;;;;;1.93;1.33;;;10.80;99.90;;;;;;4928498;29;20300;-72
2023/04/12 09:30:07;;;;;;;2.27;1.23;;;10.90;99.90;;;;;;4922020;29;20264;-72
2023/04/12 09:32:35;;;;;;;2.00;1.47;;;11.00;99.90;;;;;;4909595;29;20284;-72
2023/04/12 09:35:04;;;;;;;2.27;1.20;;;11.10;99.90;;;;;;4909247;29;20327;-72
2023/04/12 09:37:31;;;;;;;2.73;1.20;;;11.10;99.90;;;;;;4908994;29;20213;-73
2023/04/12 09:40:02;;;;;;;1.77;1.50;;;11.20;99.90;;;;;;4910043;29;20208;-73
2023/04/12 09:42:31;;;;;;;1.70;1.30;;;11.30;99.90;;;;;;4913178;29;20234;-73
2023/04/12 09:44:58;;;;;;;3.03;1.40;;;11.30;99.90;;;;;;4912599;29;20735;-73
2023/04/12 09:47:37;;;;;;;2.33;1.37;;;11.40;99.90;;;;;;4929778;29;20212;-73
2023/04/12 09:50:06;;;;;;;2.50;1.37;;;11.50;99.90;;;;;;4931555;29;20639;-73
2023/04/12 09:52:37;;;;;;;4.23;1.60;;;11.60;99.90;;;;;;4932033;29;20653;-73
2023/04/12 09:55:09;;;;;;;2.17;1.37;;;11.60;99.90;;;;;;4931763;29;20205;-73
2023/04/12 09:57:40;;;;;;;2.67;1.40;;;11.70;99.90;;;;;;4931404;29;20315;-73
2023/04/12 10:00:13;;;;;;;1.70;1.40;;;11.70;99.90;;;;;;4931688;29;20251;-73
2023/04/12 10:02:42;;;;;;;2.30;1.20;;;11.80;99.90;;;;;;4931611;29;20804;-73
2023/04/12 10:05:12;;;;;;;4.17;1.67;;;11.90;99.90;;;;;;4931714;29;20322;-73
2023/04/12 10:07:41;;;;;;;1.80;1.10;;;12.00;99.90;;;;;;4931030;29;20598;-73
2023/04/12 10:10:11;;;;;;;4.20;1.63;;;12.00;99.90;;;;;;4931058;29;20626;-73
2023/04/12 10:12:40;;;;;;;2.90;1.80;;;12.10;99.90;;;;;;4931524;29;20928;-73
2023/04/12 10:15:12;;;;;;;4.43;1.63;;;12.20;99.90;;;;;;4930803;29;20684;-73
2023/04/12 10:17:43;;;;;;;2.30;1.60;;;12.30;99.90;;;;;;4930828;29;20248;-72
2023/04/12 10:20:11;;;;;;;6.23;1.93;;;12.40;99.90;;;;;;4931453;29;20243;-73
2023/04/12 10:22:40;;;;;;;3.03;1.23;;;12.50;99.90;;;;;;4931182;29;20212;-73
2023/04/12 10:25:12;;;;;;;1.60;1.30;;;12.50;99.90;;;;;;4930906;29;20236;-73
2023/04/12 10:27:42;;;;;;;2.97;1.57;;;12.60;99.90;;;;;;4912784;29;20683;-73
2023/04/12 10:30:26;;;;;;;5.83;1.77;;;12.70;99.90;;;;;;4927521;29;20312;-73
2023/04/12 10:33:12;;;;;;;3.17;1.40;;;12.80;99.40;;;;;;4931136;29;20196;-73
2023/04/12 10:36:01;;;;;;;2.57;1.40;;;12.80;99.40;;;;;;4930409;29;20667;-73
2023/04/12 10:38:31;;;;;;;3.43;1.50;;;12.90;99.60;;;;;;4930748;29;20207;-73
2023/04/12 10:41:15;;;;;;;2.90;1.20;;;13.00;98.80;;;;;;4930888;29;20212;-73
2023/04/12 10:43:45;;;;;;;2.67;1.50;;;13.10;99.10;;;;;;4930819;29;20315;-73
2023/04/12 10:46:49;;;;;;;1.43;1.30;;;13.20;99.30;;;;;;4930593;29;20219;-73
2023/04/12 10:49:17;;;;;;;2.10;1.50;;;13.30;99.50;;;;;;4930879;29;20272;-74
2023/04/12 10:52:13;;;;;;;2.97;1.40;;;13.40;98.90;;;;;;4929900;29;20311;-73
2023/04/12 10:54:40;;;;;;;3.27;1.40;;;13.50;99.10;;;;;;4930180;29;20689;-73
2023/04/12 10:57:08;;;;;;;2.93;1.43;;;13.60;98.30;;;;;;4930263;29;20247;-73
2023/04/12 10:59:58;;;;;;;3.63;1.60;;;13.70;98.40;;;;;;4930034;29;20671;-73
2023/04/12 11:02:25;;;;;;;3.40;1.93;;;13.80;98.40;;;;;;4930582;29;20410;-73
2023/04/12 11:05:10;;;;;;;2.00;1.40;;;13.90;98.80;;;;;;4930388;29;20232;-73
2023/04/12 11:07:39;;;;;;;1.63;1.30;;;14.00;98.40;;;;;;4930529;29;20200;-73
2023/04/12 11:10:13;;;;;;;4.07;1.30;;;14.20;98.70;;;;;;4930362;29;20299;-73
2023/04/12 11:12:41;;;;;;;4.33;1.20;;;14.30;97.50;;;;;;4930239;29;20208;-74
2023/04/12 11:15:13;;;;;;;2.43;1.50;;;14.30;97.70;;;;;;4929503;29;20299;-73
2023/04/12 11:17:40;;;;;;;3.47;1.40;;;14.30;97.50;;;;;;4929813;29;20254;-73
2023/04/12 11:20:11;;;;;;;2.87;1.27;;;14.30;97.60;;;;;;4929915;29;20314;-73
2023/04/12 11:22:39;;;;;;;1.70;1.40;;;14.40;97.10;;;;;;4930253;29;20205;-73
2023/04/12 11:25:06;;;;;;;2.60;1.40;;;14.50;97.60;;;;;;4929685;29;20853;-74
2023/04/12 11:27:36;;;;;;;3.13;1.43;;;14.60;97.30;;;;;;4930007;29;20689;-74
2023/04/12 11:30:04;;;;;;;2.00;1.20;;;14.70;97.40;;;;;;4914552;29;20224;-73
2023/04/12 11:32:34;;;;;;;1.57;0.97;;;14.80;97.60;;;;;;4910806;29;20219;-74
2023/04/12 11:35:01;;;;;;;3.20;1.23;;;14.90;97.00;;;;;;4910726;29;20241;-73
2023/04/12 11:37:30;;;;;;;2.50;1.40;;;15.00;96.20;;;;;;4910376;29;20220;-73
2023/04/12 11:39:58;;;;;;;3.37;1.40;;;14.90;96.50;;;;;;4910335;29;20671;-74
2023/04/12 11:42:28;;;;;;;3.10;1.53;;;14.90;95.90;;;;;;4910362;29;20217;-73
2023/04/12 11:44:55;;;;;;;3.23;1.40;;;15.00;95.90;;;;;;4910226;29;20225;-73
2023/04/12 11:47:24;;;;;;;1.23;1.03;;;15.10;96.00;;;;;;4926563;29;20211;-73
2023/04/12 11:49:53;;;;;;;4.27;1.73;;;15.20;95.60;;;;;;4929067;29;20327;-73
2023/04/12 11:52:21;;;;;;;1.50;1.10;;;15.20;95.70;;;;;;4929180;29;20306;-74
2023/04/12 11:54:50;;;;;;;1.77;1.10;;;15.20;95.40;;;;;;4928889;29;20299;-73
2023/04/12 11:57:19;;;;;;;2.37;1.47;;;15.30;95.30;;;;;;4928943;29;20213;-74
2023/04/12 11:59:46;;;;;;;2.77;1.37;;;15.30;95.70;;;;;;4929137;29;20314;-73
2023/04/12 12:02:14;;;;;;;4.93;1.40;;;15.10;95.40;;;;;;4929286;29;20612;-74
2023/04/12 12:04:44;;;;;;;1.83;1.20;;;15.00;95.60;;;;;;4928240;29;20232;-74
2023/04/12 12:07:14;;;;;;;2.93;1.33;;;14.90;95.60;;;;;;4928659;29;20299;-74
2023/04/12 12:09:42;;;;;;;1.73;1.20;;;14.80;95.90;;;;;;4911571;29;20291;-74
2023/04/12 12:12:11;;;;;;;2.47;1.27;;;14.80;96.10;;;;;;4909764;29;20642;-74
2023/04/12 12:14:39;;;;;;;1.43;1.03;;;14.60;95.60;;;;;;4909914;29;20295;-74
2023/04/12 12:17:11;;;;;;;2.60;1.37;;;14.60;96.10;;;;;;4909858;29;20244;-74
2023/04/12 12:19:40;;;;;;;2.17;1.30;;;14.50;96.30;;;;;;4910223;29;20671;-74
2023/04/12 12:22:16;;;;;;;1.50;1.17;;;14.50;95.60;;;;;;4910164;29;20216;-74
2023/04/12 12:24:49;;;;;;;2.30;1.33;;;14.50;96.00;;;;;;4909944;29;20259;-73
2023/04/12 12:27:19;;;;;;;2.40;1.37;;;14.60;95.90;;;;;;4909369;29;20299;-74
2023/04/12 12:29:50;;;;;;;1.90;1.03;;;14.60;95.80;;;;;;4922710;29;20227;-74
2023/04/12 12:32:18;;;;;;;2.13;1.17;;;14.60;96.10;;;;;;4928504;29;20197;-73
2023/04/12 12:34:54;;;;;;;3.40;1.27;;;14.60;96.00;;;;;;4928803;29;20308;-73
2023/04/12 12:37:24;;;;;;;1.30;1.20;;;14.60;96.00;;;;;;4928336;29;20247;-73
2023/04/12 12:40:06;;;;;;;2.37;1.07;;;14.60;96.40;;;;;;4928778;29;20200;-73
2023/04/12 12:42:34;;;;;;;1.83;1.00;;;14.70;96.80;;;;;;4928737;29;20200;-73
2023/04/12 12:45:03;;;;;;;1.97;1.00;;;14.60;95.70;;;;;;4928023;29;20342;-73
2023/04/12 12:47:30;;;;;;;3.97;1.23;;;14.60;95.60;;;;;;4928529;29;20220;-73
2023/04/12 12:49:57;;;;;;;2.67;1.00;;;14.50;95.90;;;;;;4928529;29;20255;-74
2023/04/12 12:52:25;;;;;;;1.93;1.40;;;14.50;96.50;;;;;;4928071;29;20690;-73
2023/04/12 12:54:52;;;;;;;2.10;1.37;;;14.40;96.00;;;;;;4928479;29;20263;-73
2023/04/12 12:57:19;;;;;;;1.40;1.07;;;14.40;95.60;;;;;;4928143;29;20683;-73
2023/04/12 12:59:46;;;;;;;3.43;0.90;;;14.40;95.60;;;;;;4928181;29;20655;-73
2023/04/12 13:02:14;;;;;;;1.67;1.23;;;14.40;95.80;;;;;;4928172;29;20255;-73